Flight Track Log - Related Links

Times and Time Zones

All times are in EDT time to prevent confusion due to time zone crossing. See the ASQ4209 flight status page for this flight to view local times or setup timezone preferences in your user account.

Time Position Orientation Groundspeed Altitude Reporting Facility
EDT Latitude Longitude Course Direction KTS MPH feet Rate Location/Type
Fri 05:18:34 PM 30.4872 -91.0925 255° West 197 227 3,000  Level Houston Center
Fri 05:19:36 PM 30.4439 -91.1378 222° Southwest 234 269 4,800 2,177 Climbing Houston Center
Fri 05:20:38 PM 30.4247 -91.2164 254° West 249 287 7,500 2,613 Climbing Houston Center
Fri 05:21:00 PM 30.4881 -91.5368 226° Southwest  Level Estimated
Fri 05:21:40 PM 30.3939 -91.3100 249° West 257 296 10,200  Level Houston Center
Fri 05:22:00 PM 30.4361 -91.6134 232° Southwest  Level FlightAware Approximate
Fri 05:22:42 PM 30.3572 -91.3889 242° Southwest 269 310 10,900  Level Houston Center
Fri 05:23:00 PM 30.3840 -91.6900 232° Southwest  Level FlightAware Approximate
Fri 05:23:44 PM 30.3089 -91.4819 239° Southwest 320 368 11,900  Level Houston Center
Fri 05:24:00 PM 30.3615 -91.7896 255° West  Level FlightAware Approximate
Fri 05:24:46 PM 30.2581 -91.5761 238° Southwest 340 391 13,600  Level Houston Center
Fri 05:25:48 PM 30.2119 -91.6669 240° Southwest 334 384 16,000 2,081 Climbing Houston Center
Fri 05:26:50 PM 30.1622 -91.7619 238° Southwest 314 361 17,900 1,597 Climbing Houston Center
Fri 05:27:00 PM 30.1409 -91.7612 238° Southwest  Level FlightAware Approximate
Fri 05:27:52 PM 30.1192 -91.8508 241° Southwest 315 362 19,300  Level Houston Center
Fri 05:28:54 PM 30.0714 -91.9433 239° Southwest 327 376 20,000 339 Climbing Houston Center
Fri 05:29:56 PM 30.0175 -92.0489 239° Southwest 368 423 20,000  Level Houston Center
Fri 05:30:58 PM 29.9611 -92.1592 239° Southwest 393 452 20,000 -323 Level Houston Center
Fri 05:33:02 PM 29.8350 -92.4028 239° Southwest 402 463 19,000 -323 Descending Houston Center
Fri 05:34:04 PM 29.7803 -92.5103 240° Southwest 393 452 19,000  Level Houston Center
Fri 05:35:06 PM 29.7231 -92.6200 239° Southwest 397 457 19,000  Level Houston Center
Fri 05:36:08 PM 29.6669 -92.7269 239° Southwest 393 452 19,000  Level Houston Center
Fri 05:37:10 PM 29.6122 -92.8319 239° Southwest 385 443 19,000  Level Houston Center
Fri 05:38:12 PM 29.5472 -92.9569 239° Southwest 381 438 19,000  Level Houston Center
Fri 05:39:14 PM 29.4942 -93.0606 240° Southwest 377 434 19,000  Level Houston Center
Fri 05:40:16 PM 29.4706 -93.1756 257° West 382 440 19,000  Level Houston Center
Fri 05:41:18 PM 29.4225 -93.2828 243° Southwest 377 434 19,000  Level Houston Center
Fri 05:42:20 PM 29.3750 -93.3869 242° Southwest 372 428 19,000  Level Houston Center
Fri 05:43:22 PM 29.3208 -93.4928 240° Southwest 379 436 19,000  Level Houston Center
Fri 05:44:24 PM 29.2672 -93.6006 240° Southwest 384 442 19,000  Level Houston Center
Fri 05:45:26 PM 29.1919 -93.7214 235° Southwest 390 449 19,000  Level Houston Center
Fri 05:46:28 PM 29.1286 -93.8181 233° Southwest 384 442 19,000  Level Houston Center
Fri 05:47:30 PM 29.0708 -93.9117 235° Southwest 371 427 19,000  Level Houston Center
Fri 05:48:32 PM 29.1133 -94.0014 298° West 353 406 19,000  Level Houston Center
Fri 05:48:43 PM 29.1381 -94.0231 323° Northwest 362 417 19,000 -97 Level Houston Center
Fri 05:49:34 PM 29.1994 -94.0736 324° Northwest 374 430 18,900 -913 Descending Houston Center
Fri 05:50:15 PM 29.2758 -94.1364 324° Northwest 408 470 17,600 -1,645 Descending Houston Center
Fri 05:50:36 PM 29.2914 -94.1464 331° Northwest 393 452 17,200 -2,060 Descending Houston Center
Fri 05:51:22 PM 29.3786 -94.2189 324° Northwest 393 452 15,300 -2,323 Descending Houston Center
Fri 05:51:38 PM 29.3997 -94.2358 325° Northwest 400 460 14,800 -1,745 Descending Houston Center
Fri 05:52:17 PM 29.4519 -94.2789 324° Northwest 360 414 13,700 -1,452 Descending Houston Center
Fri 05:52:40 PM 29.4822 -94.3025 326° Northwest 378 435 13,300 -590 Descending Houston Center
Fri 05:53:18 PM 29.5314 -94.3575 316° Northwest 353 406 13,100 -387 Descending Houston Center
Fri 05:53:42 PM 29.5381 -94.3864 285° West 361 415 12,900 -787 Descending Houston Center
Fri 05:54:19 PM 29.5497 -94.4586 281° West 302 348 12,300 -774 Descending Houston Center
Fri 05:54:44 PM 29.5550 -94.4858 283° West 313 360 12,100 -1,355 Descending Houston Center
Fri 05:55:21 PM 29.5911 -94.5372 309° West 319 367 10,900 -1,475 Descending Houston Center
Fri 05:55:45 PM 29.6133 -94.5408 352° North 332 382 10,600 -1,527 Descending Houston Center
Fri 05:56:16 PM 29.6689 -94.5586 344° North 316 364 9,500 -1,548 Descending Houston Center
Fri 05:56:47 PM 29.6983 -94.5642 351° North 325 374 9,000 -1,475 Descending Houston Center
Fri 05:57:17 PM 29.7553 -94.5811 346° North 304 350 8,000 -1,742 Descending Houston Center
Fri 05:57:49 PM 29.7967 -94.5900 349° North 309 356 7,200 -1,279 Descending Houston Center
Fri 05:58:18 PM 29.8369 -94.6019 346° North 289 333 6,700 -968 Descending Houston Center
Fri 05:58:51 PM 29.8742 -94.6114 348° North 294 338 6,200 -627 Descending Houston Center
Fri 05:59:25 PM 29.9233 -94.6247 347° North 293 337 6,000 -194 Descending Houston Center
Fri 05:59:53 PM 29.9522 -94.6314 349° North 290 334 6,000  Level Houston Center
Fri 06:00:20 PM 29.9906 -94.6475 340° North 261 300 6,000 97 Level Houston Center
Fri 06:00:55 PM 30.0214 -94.6611 339° North 276 318 6,100  Climbing Houston Center
Fri 06:01:21 PM 30.0611 -94.6794 338° Northwest 272 313 6,000  Descending Houston Center
Fri 06:01:57 PM 30.0897 -94.6928 338° Northwest 268 308 6,100 -787 Climbing Houston Center
Fri 06:02:22 PM 30.1292 -94.7119 337° Northwest 259 298 5,200 -1,548 Descending Houston Center
Fri 06:02:59 PM 30.1553 -94.7500 308° West 264 304 4,500 -1,082 Descending Houston Center
Fri 06:03:23 PM 30.1633 -94.7825 286° West 231 266 4,100 -590 Descending Houston Center
Fri 06:04:00 PM 30.1769 -94.8189 293° West 238 274 3,900 -82 Descending Houston Center
Fri 06:04:36 PM 30.1900 -94.8639 289° West 229 264 4,000 97 Climbing Houston Center
Fri 06:05:02 PM 30.1992 -94.8886 293° West 233 268 4,000  Level Houston Center
Fri 06:05:25 PM 30.2081 -94.9219 287° West 230 265 4,000 -97 Level Houston Center
Fri 06:06:04 PM 30.2047 -94.9578 264° West 227 261 3,900 -689 Descending Houston Center
Fri 06:06:26 PM 30.1914 -94.9894 244° Southwest 215 247 3,300 -871 Descending Houston Center
Fri 06:07:06 PM 30.1803 -95.0214 248° West 218 251 3,000 -295 Descending Houston Center
Fri 06:07:27 PM 30.1606 -95.0417 222° Southwest 197 227 3,000  Level Houston Center
Fri 06:08:08 PM 30.1408 -95.0650 226° Southwest 203 234 3,000  Level Houston Center
Fri 06:08:28 PM 30.1108 -95.0719 191° South 201 231 3,000  Level Houston Center
Fri 06:09:10 PM 30.0739 -95.0792 190° South 202 232 3,000 -197 Level Houston Center
Fri 06:09:29 PM 30.0547 -95.0789 179° South 202 232 2,800 -774 Descending Houston Center
Fri 06:10:12 PM 30.0261 -95.0994 212° Southwest 201 231 2,200 -800 Descending Houston Center
Fri 06:10:29 PM 30.0144 -95.1175 233° Southwest 206 237 2,000 -197 Descending Houston Center
Fri 06:11:13 PM 30.0081 -95.1608 260° West 205 236 2,000  Level Houston Center
Fri 06:11:30 PM 30.0061 -95.1861 265° West 217 250 2,000 -194 Level Houston Center
Fri 06:12:15 PM 30.0067 -95.2286 271° West 211 243 1,800 -590 Descending Houston Center
Fri 06:12:31 PM 30.0075 -95.2486 273° West 166 191 1,400 -935 Descending Houston Center
Fri 06:13:32 PM 30.0061 -95.2997 268° West 149 171 600 -556 Descending Houston Center
Fri 06:14:19 PM 30.0083 -95.3297 275° West 161 185 400 -255 Descending Houston Center

Login

Don't have an account? Register now (free) for customized features, flight alerts, and more!